createdAt,value
2023-03-08T00:01:48.501Z,96.21
2023-03-08T00:04:15.318Z,96.02
2023-03-08T00:06:44.234Z,96.13
2023-03-08T00:09:13.446Z,95.99
2023-03-08T00:11:40.066Z,96.54
2023-03-08T00:14:09.169Z,96.36
2023-03-08T00:16:38.279Z,96.37
2023-03-08T00:19:04.868Z,96.65
2023-03-08T00:21:31.622Z,96.18
2023-03-08T00:24:00.397Z,96.58
2023-03-08T00:26:27.276Z,96.16
2023-03-08T00:28:53.996Z,96.57
2023-03-08T00:31:20.888Z,96.41
2023-03-08T00:33:49.736Z,96.48
2023-03-08T00:36:21.793Z,96.59
2023-03-08T00:38:50.484Z,96.68
2023-03-08T00:41:17.277Z,96.18
2023-03-08T00:43:43.996Z,96.24
2023-03-08T00:46:11.661Z,96.46
2023-03-08T00:48:38.663Z,96.50
2023-03-08T00:51:05.486Z,96.30
2023-03-08T00:53:32.307Z,96.53
2023-03-08T00:56:01.774Z,96.50
2023-03-08T00:58:31.078Z,96.27
2023-03-08T01:00:58.495Z,96.48
2023-03-08T01:03:26.041Z,96.66
2023-03-08T01:05:57.939Z,96.74
2023-03-08T01:08:29.784Z,96.37
2023-03-08T01:10:59.346Z,96.62
2023-03-08T01:13:31.229Z,96.47
2023-03-08T01:15:58.717Z,96.26
2023-03-08T01:18:27.504Z,96.54
2023-03-08T01:21:04.847Z,96.26
2023-03-08T01:23:32.096Z,96.58
2023-03-08T01:26:11.532Z,96.07
2023-03-08T01:28:38.342Z,96.21
2023-03-08T01:31:16.416Z,96.32
2023-03-08T01:33:44.561Z,96.37
2023-03-08T01:36:15.270Z,96.30
2023-03-08T01:38:42.695Z,96.45
2023-03-08T01:41:15.943Z,96.61
2023-03-08T01:43:42.560Z,96.47
2023-03-08T01:46:33.675Z,96.56
2023-03-08T01:49:08.453Z,96.14
2023-03-08T01:51:39.849Z,96.38
2023-03-08T01:54:31.171Z,96.22
2023-03-08T01:57:05.688Z,95.97
2023-03-08T01:59:34.651Z,96.03
2023-03-08T02:02:02.987Z,96.37
2023-03-08T02:04:29.562Z,96.08
2023-03-08T02:06:56.115Z,96.10
2023-03-08T02:09:23.168Z,96.26
2023-03-08T02:11:50.011Z,95.96
2023-03-08T02:14:23.925Z,96.16
2023-03-08T02:16:50.763Z,95.97
2023-03-08T02:19:23.892Z,95.79
2023-03-08T02:21:50.591Z,95.84
2023-03-08T02:24:23.729Z,95.80
2023-03-08T02:27:00.121Z,95.58
2023-03-08T02:29:26.764Z,95.26
2023-03-08T02:31:53.350Z,95.37
2023-03-08T02:34:22.263Z,95.42
2023-03-08T02:36:48.968Z,95.21
2023-03-08T02:39:17.907Z,95.00
2023-03-08T02:41:44.560Z,94.95
2023-03-08T02:44:16.092Z,94.94
2023-03-08T02:46:42.649Z,94.95
2023-03-08T02:49:09.261Z,94.95
2023-03-08T02:51:35.929Z,95.11
2023-03-08T02:54:02.651Z,94.91
2023-03-08T02:56:29.251Z,94.79
2023-03-08T02:58:58.878Z,94.95
2023-03-08T03:01:25.892Z,94.62
2023-03-08T03:03:55.305Z,94.73
2023-03-08T03:06:22.899Z,94.50
2023-03-08T03:08:49.848Z,95.19
2023-03-08T03:11:19.449Z,94.83
2023-03-08T03:13:54.062Z,95.07
2023-03-08T03:16:22.947Z,95.04
2023-03-08T03:18:49.672Z,94.80
2023-03-08T03:21:17.657Z,94.76
2023-03-08T03:23:44.397Z,94.88
2023-03-08T03:26:21.791Z,94.74
2023-03-08T03:28:51.417Z,94.49
2023-03-08T03:31:21.898Z,94.51
2023-03-08T03:33:49.728Z,94.99
2023-03-08T03:36:19.436Z,95.17
2023-03-08T03:38:47.159Z,94.80
2023-03-08T03:41:18.785Z,94.47
2023-03-08T03:43:50.926Z,95.06
2023-03-08T03:46:23.291Z,94.56
2023-03-08T03:48:50.131Z,94.95
2023-03-08T03:51:19.854Z,94.79
2023-03-08T03:53:49.795Z,94.67
2023-03-08T03:56:21.806Z,95.11
2023-03-08T03:58:49.220Z,94.03
2023-03-08T04:01:22.021Z,95.07
2023-03-08T04:03:49.339Z,95.15
2023-03-08T04:06:18.861Z,94.64
2023-03-08T04:08:46.147Z,94.97
2023-03-08T04:11:15.931Z,94.79
2023-03-08T04:13:45.466Z,94.91
2023-03-08T04:16:17.848Z,94.87
2023-03-08T04:18:44.860Z,95.22
2023-03-08T04:21:12.293Z,94.74
2023-03-08T04:23:39.643Z,94.65
2023-03-08T04:26:07.457Z,94.94
2023-03-08T04:28:34.362Z,94.62
2023-03-08T04:31:21.623Z,94.72
2023-03-08T04:33:51.780Z,94.59
2023-03-08T04:36:18.833Z,95.07
2023-03-08T04:38:46.902Z,94.90
2023-03-08T04:41:14.188Z,94.31
2023-03-08T04:44:01.070Z,94.90
2023-03-08T04:46:30.245Z,94.46
2023-03-08T04:48:56.965Z,94.58
2023-03-08T04:51:26.055Z,94.57
2023-03-08T04:53:53.195Z,95.11
2023-03-08T04:56:22.720Z,94.67
2023-03-08T04:58:49.381Z,94.95
2023-03-08T05:01:18.733Z,94.75
2023-03-08T05:03:49.692Z,94.52
2023-03-08T05:06:16.359Z,94.45
2023-03-08T05:08:45.357Z,94.39
2023-03-08T05:11:18.833Z,94.58
2023-03-08T05:13:47.780Z,94.57
2023-03-08T05:16:15.433Z,94.22
2023-03-08T05:18:45.415Z,94.42
2023-03-08T05:21:14.650Z,94.82
2023-03-08T05:23:41.785Z,94.83
2023-03-08T05:26:11.363Z,94.70
2023-03-08T05:28:38.604Z,94.36
2023-03-08T05:31:10.738Z,94.28
2023-03-08T05:33:40.963Z,94.97
2023-03-08T05:36:08.300Z,94.33
2023-03-08T05:38:35.219Z,94.87
2023-03-08T05:41:03.661Z,94.64
2023-03-08T05:43:30.829Z,94.97
2023-03-08T05:46:05.930Z,95.19
2023-03-08T05:48:37.236Z,95.37
2023-03-08T05:51:08.220Z,94.65
2023-03-08T05:53:35.953Z,95.10
2023-03-08T05:56:09.718Z,94.86
2023-03-08T05:58:36.868Z,94.72
2023-03-08T06:01:10.735Z,95.27
2023-03-08T06:03:40.329Z,94.76
2023-03-08T06:06:09.161Z,95.24
2023-03-08T06:08:38.528Z,95.01
2023-03-08T06:11:05.716Z,95.24
2023-03-08T06:13:32.595Z,95.11
2023-03-08T06:16:00.702Z,95.01
2023-03-08T06:18:27.641Z,95.29
2023-03-08T06:20:58.491Z,95.22
2023-03-08T06:23:25.733Z,94.87
2023-03-08T06:25:52.829Z,95.10
2023-03-08T06:28:19.429Z,95.14
2023-03-08T06:30:50.146Z,95.49
2023-03-08T06:33:20.543Z,95.48
2023-03-08T06:36:09.697Z,95.28
2023-03-08T06:38:38.464Z,94.99
2023-03-08T06:41:07.023Z,95.57
2023-03-08T06:43:36.834Z,95.52
2023-03-08T06:46:08.983Z,95.16
2023-03-08T06:48:36.334Z,95.27
2023-03-08T06:51:04.586Z,95.42
2023-03-08T06:53:31.990Z,95.47
2023-03-08T06:55:58.585Z,95.03
2023-03-08T06:58:27.357Z,95.00
2023-03-08T07:00:54.983Z,95.36
2023-03-08T07:03:21.771Z,94.93
2023-03-08T07:05:48.470Z,95.39
2023-03-08T07:08:17.304Z,95.02
2023-03-08T07:10:43.895Z,94.98
2023-03-08T07:13:10.470Z,94.51
2023-03-08T07:15:39.873Z,94.72
2023-03-08T07:18:06.768Z,94.91
2023-03-08T07:20:35.715Z,95.11
2023-03-08T07:23:02.360Z,95.17
2023-03-08T07:25:29.079Z,95.08
2023-03-08T07:27:55.624Z,94.92
2023-03-08T07:30:25.020Z,94.76
2023-03-08T07:32:54.083Z,94.53
2023-03-08T07:35:20.725Z,94.42
2023-03-08T07:37:48.296Z,94.65
2023-03-08T07:40:16.545Z,94.72
2023-03-08T07:42:45.996Z,94.07
2023-03-08T07:45:13.764Z,94.11
2023-03-08T07:47:42.956Z,94.59
2023-03-08T07:50:10.280Z,94.55
2023-03-08T07:52:36.889Z,94.58
2023-03-08T07:55:06.222Z,94.63
2023-03-08T07:57:32.789Z,94.11
2023-03-08T08:00:01.484Z,93.93
2023-03-08T08:02:28.111Z,94.50
2023-03-08T08:04:54.693Z,93.98
2023-03-08T08:07:21.324Z,93.99
2023-03-08T08:09:49.992Z,93.59
2023-03-08T08:12:16.740Z,93.64
2023-03-08T08:14:43.488Z,93.86
2023-03-08T08:17:10.195Z,93.94
2023-03-08T08:19:37.903Z,93.88
2023-03-08T08:22:05.174Z,94.13
2023-03-08T08:24:34.263Z,93.88
2023-03-08T08:27:00.897Z,94.39
2023-03-08T08:29:27.554Z,94.19
2023-03-08T08:31:54.111Z,94.13
2023-03-08T08:34:20.914Z,93.76
2023-03-08T08:36:50.251Z,94.05
2023-03-08T08:39:19.061Z,93.79
2023-03-08T08:41:45.672Z,93.88
2023-03-08T08:44:12.269Z,93.99
2023-03-08T08:46:38.841Z,93.75
2023-03-08T08:49:05.677Z,93.54
2023-03-08T08:51:32.675Z,93.65
2023-03-08T08:53:59.453Z,93.24
2023-03-08T08:56:30.577Z,92.90
2023-03-08T08:59:00.467Z,93.25
2023-03-08T09:01:33.213Z,93.46
2023-03-08T09:04:00.481Z,93.38
2023-03-08T09:06:29.286Z,93.48
2023-03-08T09:08:58.390Z,93.18
2023-03-08T09:11:26.603Z,93.31
2023-03-08T09:13:54.053Z,93.58
2023-03-08T09:16:28.619Z,93.73
2023-03-08T09:18:56.906Z,93.88
2023-03-08T09:21:24.607Z,92.79
2023-03-08T09:23:54.139Z,93.08
2023-03-08T09:26:20.786Z,93.21
2023-03-08T09:28:49.662Z,92.86
2023-03-08T09:31:17.768Z,92.39
2023-03-08T09:33:51.831Z,91.95
2023-03-08T09:36:21.698Z,92.11
2023-03-08T09:38:52.977Z,93.57
2023-03-08T09:41:20.822Z,93.61
2023-03-08T09:44:12.086Z,92.66
2023-03-08T09:46:46.372Z,91.83
2023-03-08T09:49:39.904Z,91.71
2023-03-08T09:52:38.542Z,90.92
2023-03-08T09:55:11.339Z,89.93
2023-03-08T09:57:47.054Z,89.61
2023-03-08T10:00:28.406Z,89.93
2023-03-08T10:03:02.886Z,89.91
2023-03-08T10:05:38.601Z,88.91
2023-03-08T10:08:49.858Z,88.79
2023-03-08T10:11:36.289Z,86.96
2023-03-08T10:14:36.344Z,87.08
2023-03-08T10:17:13.069Z,86.92
2023-03-08T10:20:07.004Z,86.01
2023-03-08T10:22:42.328Z,87.68
2023-03-08T10:25:24.411Z,86.93
2023-03-08T10:27:56.537Z,86.30
2023-03-08T10:30:32.704Z,85.35
2023-03-08T10:33:03.377Z,84.28
2023-03-08T10:35:36.559Z,84.06
2023-03-08T10:38:05.757Z,84.19
2023-03-08T10:40:34.621Z,84.45
2023-03-08T10:43:07.047Z,84.30
2023-03-08T10:45:36.065Z,84.67
2023-03-08T10:48:08.467Z,84.88
2023-03-08T10:50:37.088Z,85.96
2023-03-08T10:53:20.307Z,85.87
2023-03-08T10:55:49.978Z,85.46
2023-03-08T10:58:42.284Z,84.78
2023-03-08T11:01:27.077Z,85.73
2023-03-08T11:04:01.213Z,86.86
2023-03-08T11:06:27.984Z,86.54
2023-03-08T11:09:00.747Z,86.29
2023-03-08T11:11:27.690Z,86.51
2023-03-08T11:13:55.444Z,86.65
2023-03-08T11:16:40.518Z,85.98
2023-03-08T11:19:29.524Z,86.94
2023-03-08T11:22:08.305Z,86.81
2023-03-08T11:25:13.882Z,86.14
2023-03-08T11:28:01.655Z,86.36
2023-03-08T11:30:40.455Z,86.73
2023-03-08T11:33:38.184Z,87.22
2023-03-08T11:36:13.089Z,86.03
2023-03-08T11:38:40.980Z,86.82
2023-03-08T11:41:16.657Z,85.81
2023-03-08T11:44:10.773Z,85.96
2023-03-08T11:46:51.703Z,85.59
2023-03-08T11:49:26.937Z,86.27
2023-03-08T11:51:56.465Z,86.07
2023-03-08T11:54:51.304Z,86.42
2023-03-08T11:57:20.974Z,85.87
2023-03-08T12:00:13.195Z,86.20
2023-03-08T12:02:44.934Z,86.65
2023-03-08T12:05:58.026Z,86.39
2023-03-08T12:08:30.492Z,85.57
2023-03-08T12:11:21.514Z,86.21
2023-03-08T12:13:53.587Z,85.89
2023-03-08T12:16:36.272Z,86.43
2023-03-08T12:19:06.753Z,86.38
2023-03-08T12:21:49.299Z,85.65
2023-03-08T12:24:36.087Z,86.38
2023-03-08T12:27:05.836Z,86.96
2023-03-08T12:29:49.221Z,86.97
2023-03-08T12:32:17.997Z,86.59
2023-03-08T12:35:00.129Z,87.01
2023-03-08T12:37:29.530Z,87.17
2023-03-08T12:40:08.407Z,87.08
2023-03-08T12:42:40.646Z,87.69
2023-03-08T12:45:19.600Z,87.10
2023-03-08T12:48:04.091Z,86.92
2023-03-08T12:50:34.163Z,87.47
2023-03-08T12:53:00.883Z,86.94
2023-03-08T12:55:31.926Z,86.71
2023-03-08T12:58:01.774Z,86.19
2023-03-08T13:00:37.373Z,85.97
2023-03-08T13:03:12.992Z,86.22
2023-03-08T13:05:43.216Z,86.23
2023-03-08T13:08:12.848Z,86.77
2023-03-08T13:10:40.690Z,85.93
2023-03-08T13:13:10.317Z,86.01
2023-03-08T13:15:42.311Z,86.37
2023-03-08T13:18:09.520Z,86.51
2023-03-08T13:20:36.114Z,86.31
2023-03-08T13:23:17.220Z,86.67
2023-03-08T13:26:02.478Z,86.74
2023-03-08T13:28:46.572Z,86.41
2023-03-08T13:31:20.801Z,86.36
2023-03-08T13:33:47.720Z,87.12
2023-03-08T13:36:20.866Z,86.49
2023-03-08T13:39:05.689Z,87.28
2023-03-08T13:41:46.105Z,86.53
2023-03-08T13:44:21.304Z,86.86
2023-03-08T13:46:51.574Z,86.85
2023-03-08T13:49:31.688Z,86.91
2023-03-08T13:52:01.880Z,86.70
2023-03-08T13:54:36.766Z,86.52
2023-03-08T13:57:06.956Z,87.35
2023-03-08T13:59:35.777Z,86.16
2023-03-08T14:02:02.571Z,87.35
2023-03-08T14:04:30.651Z,86.28
2023-03-08T14:06:59.629Z,86.98
2023-03-08T14:09:27.559Z,86.98
2023-03-08T14:12:05.426Z,86.65
2023-03-08T14:14:37.374Z,86.88
2023-03-08T14:17:04.948Z,86.86
2023-03-08T14:19:35.540Z,86.97
2023-03-08T14:22:12.291Z,87.03
2023-03-08T14:24:43.981Z,86.91
2023-03-08T14:27:16.721Z,87.21
2023-03-08T14:29:47.084Z,87.34
2023-03-08T14:32:16.189Z,86.52
2023-03-08T14:34:48.681Z,87.27
2023-03-08T14:37:27.094Z,87.62
2023-03-08T14:39:56.726Z,86.83
2023-03-08T14:42:46.281Z,86.99
2023-03-08T14:45:22.645Z,85.81
2023-03-08T14:47:58.372Z,85.46
2023-03-08T14:50:30.654Z,85.92
2023-03-08T14:52:58.853Z,86.05
2023-03-08T14:55:27.179Z,86.40
2023-03-08T14:57:58.205Z,85.80
2023-03-08T15:00:29.044Z,86.17
2023-03-08T15:02:59.802Z,85.77
2023-03-08T15:05:30.255Z,86.16
2023-03-08T15:07:59.668Z,86.37
2023-03-08T15:10:32.101Z,85.94
2023-03-08T15:12:59.678Z,86.63
2023-03-08T15:15:26.554Z,86.59
2023-03-08T15:17:55.475Z,86.52
2023-03-08T15:20:23.323Z,86.76
2023-03-08T15:22:56.008Z,86.72
2023-03-08T15:25:36.254Z,87.00
2023-03-08T15:28:08.055Z,86.28
2023-03-08T15:30:34.645Z,85.88
2023-03-08T15:33:04.144Z,86.45
2023-03-08T15:35:33.378Z,86.84
2023-03-08T15:37:59.977Z,86.59
2023-03-08T15:40:28.729Z,87.65
2023-03-08T15:42:58.188Z,86.87
2023-03-08T15:45:25.049Z,86.98
2023-03-08T15:48:05.480Z,87.16
2023-03-08T15:50:33.126Z,87.01
2023-03-08T15:53:00.022Z,86.51
2023-03-08T15:55:28.377Z,86.73
2023-03-08T15:57:57.952Z,87.73
2023-03-08T16:00:25.917Z,87.47
2023-03-08T16:02:53.867Z,87.82
2023-03-08T16:05:23.395Z,87.30
2023-03-08T16:07:59.476Z,87.75
2023-03-08T16:10:29.581Z,87.96
2023-03-08T16:12:56.170Z,88.60
2023-03-08T16:15:25.291Z,88.39
2023-03-08T16:17:51.887Z,88.86
2023-03-08T16:20:18.878Z,87.78
2023-03-08T16:22:47.960Z,87.62
2023-03-08T16:25:17.718Z,88.16
2023-03-08T16:27:45.464Z,88.48
2023-03-08T16:30:13.308Z,88.04
2023-03-08T16:32:40.260Z,88.28
2023-03-08T16:35:07.109Z,88.61
2023-03-08T16:37:33.757Z,88.61
2023-03-08T16:40:07.273Z,88.39
2023-03-08T16:42:34.039Z,88.85
2023-03-08T16:45:03.026Z,88.88
2023-03-08T16:47:32.431Z,88.74
2023-03-08T16:50:00.758Z,88.33
2023-03-08T16:52:29.689Z,88.96
2023-03-08T16:54:56.825Z,88.96
2023-03-08T16:57:28.289Z,88.63
2023-03-08T16:59:55.070Z,89.35
2023-03-08T17:02:22.529Z,88.68
2023-03-08T17:04:49.845Z,89.20
2023-03-08T17:07:18.899Z,89.67
2023-03-08T17:09:46.383Z,89.32
2023-03-08T17:12:13.124Z,89.44
2023-03-08T17:14:40.009Z,89.25
2023-03-08T17:17:10.427Z,88.84
2023-03-08T17:19:39.184Z,89.93
2023-03-08T17:22:09.603Z,89.88
2023-03-08T17:24:36.208Z,89.04
2023-03-08T17:27:05.232Z,89.65
2023-03-08T17:29:34.882Z,89.44
2023-03-08T17:32:01.510Z,89.44
2023-03-08T17:34:28.278Z,89.70
2023-03-08T17:36:57.185Z,89.88
2023-03-08T17:39:23.829Z,89.66
2023-03-08T17:41:50.418Z,89.57
2023-03-08T17:44:17.070Z,90.65
2023-03-08T17:46:43.615Z,89.94
2023-03-08T17:49:14.089Z,89.99
2023-03-08T17:51:42.526Z,90.25
2023-03-08T17:54:09.415Z,90.01
2023-03-08T17:56:38.594Z,90.00
2023-03-08T17:59:08.291Z,89.97
2023-03-08T18:01:34.888Z,90.24
2023-03-08T18:04:01.834Z,90.25
2023-03-08T18:06:34.201Z,90.23
2023-03-08T18:09:04.376Z,90.53
2023-03-08T18:11:31.139Z,90.14
2023-03-08T18:13:57.721Z,90.70
2023-03-08T18:16:29.554Z,90.24
2023-03-08T18:18:56.225Z,90.68
2023-03-08T18:21:22.763Z,90.59
2023-03-08T18:23:53.752Z,90.68
2023-03-08T18:26:23.060Z,90.54
2023-03-08T18:28:50.157Z,90.74
2023-03-08T18:31:20.925Z,90.34
2023-03-08T18:33:49.786Z,90.28
2023-03-08T18:36:16.581Z,90.56
2023-03-08T18:38:45.409Z,90.61
2023-03-08T18:41:22.508Z,90.33
2023-03-08T18:43:51.110Z,90.47
2023-03-08T18:46:18.473Z,90.58
2023-03-08T18:48:50.654Z,90.44
2023-03-08T18:51:17.337Z,90.80
2023-03-08T18:53:45.970Z,90.90
2023-03-08T18:56:12.816Z,90.83
2023-03-08T18:58:42.659Z,90.57
2023-03-08T19:01:14.765Z,90.69
2023-03-08T19:03:41.799Z,91.29
2023-03-08T19:06:08.845Z,90.80
2023-03-08T19:08:35.569Z,90.56
2023-03-08T19:11:24.524Z,91.23
2023-03-08T19:13:51.317Z,91.05
2023-03-08T19:16:19.823Z,91.05
2023-03-08T19:18:47.572Z,90.60
2023-03-08T19:21:17.906Z,90.92
2023-03-08T19:23:47.841Z,91.28
2023-03-08T19:26:36.631Z,91.24
2023-03-08T19:29:06.195Z,90.72
2023-03-08T19:31:37.153Z,91.04
2023-03-08T19:34:05.097Z,90.81
2023-03-08T19:36:35.641Z,91.08
2023-03-08T19:39:04.638Z,91.27
2023-03-08T19:41:31.266Z,91.50
2023-03-08T19:44:00.156Z,91.56
2023-03-08T19:46:26.896Z,91.55
2023-03-08T19:48:54.703Z,91.73
2023-03-08T19:51:21.337Z,91.27
2023-03-08T19:53:48.031Z,91.51
2023-03-08T19:56:19.769Z,91.79
2023-03-08T19:58:47.614Z,91.53
2023-03-08T20:01:17.096Z,91.63
2023-03-08T20:03:44.340Z,91.98
2023-03-08T20:06:20.535Z,91.38
2023-03-08T20:08:49.947Z,91.87
2023-03-08T20:11:16.532Z,91.76
2023-03-08T20:13:43.239Z,91.94
2023-03-08T20:16:09.831Z,92.09
2023-03-08T20:18:38.668Z,91.93
2023-03-08T20:21:05.490Z,91.91
2023-03-08T20:23:32.069Z,91.98
2023-03-08T20:26:01.599Z,92.13
2023-03-08T20:28:28.642Z,92.21
2023-03-08T20:30:55.280Z,92.21
2023-03-08T20:33:21.846Z,91.99
2023-03-08T20:36:01.298Z,91.89
2023-03-08T20:38:28.242Z,92.12
2023-03-08T20:41:13.449Z,92.37
2023-03-08T20:43:45.855Z,91.46
2023-03-08T20:46:14.961Z,91.61
2023-03-08T20:48:45.005Z,91.60
2023-03-08T20:51:14.240Z,91.80
2023-03-08T20:53:42.037Z,91.84
2023-03-08T20:56:15.749Z,91.79
2023-03-08T20:58:43.161Z,92.13
2023-03-08T21:01:23.153Z,91.94
2023-03-08T21:03:50.458Z,91.51
2023-03-08T21:06:23.992Z,92.21
2023-03-08T21:08:51.195Z,92.18
2023-03-08T21:11:18.444Z,92.17
2023-03-08T21:13:47.253Z,92.44
2023-03-08T21:16:15.759Z,91.94
2023-03-08T21:18:46.219Z,92.33
2023-03-08T21:21:30.297Z,92.39
2023-03-08T21:23:59.534Z,92.02
2023-03-08T21:26:29.699Z,92.48
2023-03-08T21:29:02.151Z,92.39
2023-03-08T21:31:33.920Z,92.06
2023-03-08T21:34:07.629Z,91.97
2023-03-08T21:36:37.011Z,92.30
2023-03-08T21:39:04.761Z,92.09
2023-03-08T21:41:34.370Z,91.81
2023-03-08T21:44:04.692Z,91.79
2023-03-08T21:46:32.303Z,91.97
2023-03-08T21:48:59.012Z,92.00
2023-03-08T21:51:25.657Z,91.88
2023-03-08T21:53:52.304Z,91.90
2023-03-08T21:56:19.784Z,92.34
2023-03-08T21:58:48.648Z,91.81
2023-03-08T22:01:24.802Z,92.23
2023-03-08T22:03:52.633Z,91.97
2023-03-08T22:06:22.629Z,91.74
2023-03-08T22:08:50.095Z,92.58
2023-03-08T22:11:18.304Z,92.27
2023-03-08T22:13:51.736Z,92.41
2023-03-08T22:16:21.680Z,91.76
2023-03-08T22:18:51.315Z,92.45
2023-03-08T22:21:17.947Z,92.49
2023-03-08T22:23:44.715Z,92.52
2023-03-08T22:26:11.566Z,92.29
2023-03-08T22:28:38.340Z,92.54
2023-03-08T22:31:10.554Z,92.81
2023-03-08T22:33:37.337Z,92.39
2023-03-08T22:36:05.952Z,92.26
2023-03-08T22:38:33.146Z,92.63
2023-03-08T22:41:00.106Z,92.56
2023-03-08T22:43:29.952Z,92.43
2023-03-08T22:46:08.260Z,92.83
2023-03-08T22:48:35.162Z,92.63
2023-03-08T22:51:10.849Z,92.61
2023-03-08T22:53:38.985Z,92.51
2023-03-08T22:56:06.343Z,93.40
2023-03-08T22:58:32.999Z,93.15
2023-03-08T23:00:59.648Z,93.35
2023-03-08T23:03:28.613Z,92.72
2023-03-08T23:05:56.472Z,93.29
2023-03-08T23:08:25.309Z,93.18
2023-03-08T23:10:52.000Z,92.99
2023-03-08T23:13:32.970Z,93.13
2023-03-08T23:16:00.951Z,93.19
2023-03-08T23:18:30.172Z,93.03
2023-03-08T23:20:56.812Z,92.57
2023-03-08T23:23:26.026Z,92.76
2023-03-08T23:25:52.928Z,93.17
2023-03-08T23:28:20.358Z,92.85
2023-03-08T23:30:47.443Z,92.57
2023-03-08T23:33:14.122Z,93.11
2023-03-08T23:35:41.227Z,93.37
2023-03-08T23:38:08.265Z,93.63
2023-03-08T23:40:39.072Z,93.26
2023-03-08T23:43:06.847Z,93.28
2023-03-08T23:45:33.804Z,93.29
2023-03-08T23:48:02.916Z,93.77
2023-03-08T23:50:29.925Z,93.19
2023-03-08T23:52:56.599Z,93.11
2023-03-08T23:55:23.300Z,93.69
2023-03-08T23:57:50.110Z,93.93
